sensor_id;sensor_type;location;lat;lon;timestamp;pressure;altitude;pressure_sealevel;temperature;humidity
13612;BME280;6877;51.436;6.774;2024-02-23T00:01:52;98397.19;;;3.71;100.00
13612;BME280;6877;51.436;6.774;2024-02-23T00:04:23;98386.06;;;3.69;100.00
13612;BME280;6877;51.436;6.774;2024-02-23T00:06:50;98411.03;;;3.70;100.00
13612;BME280;6877;51.436;6.774;2024-02-23T00:09:17;98412.81;;;3.68;100.00
13612;BME280;6877;51.436;6.774;2024-02-23T00:11:43;98420.66;;;3.65;100.00
13612;BME280;6877;51.436;6.774;2024-02-23T00:14:15;98430.22;;;3.61;100.00
13612;BME280;6877;51.436;6.774;2024-02-23T00:16:45;98432.13;;;3.55;100.00
13612;BME280;6877;51.436;6.774;2024-02-23T00:19:11;98432.28;;;3.50;100.00
13612;BME280;6877;51.436;6.774;2024-02-23T00:21:38;98446.13;;;3.47;100.00
13612;BME280;6877;51.436;6.774;2024-02-23T00:24:05;98445.28;;;3.47;100.00
13612;BME280;6877;51.436;6.774;2024-02-23T00:26:32;98455.56;;;3.48;100.00
13612;BME280;6877;51.436;6.774;2024-02-23T00:29:03;98462.25;;;3.57;100.00
13612;BME280;6877;51.436;6.774;2024-02-23T00:31:38;98466.34;;;3.64;100.00
13612;BME280;6877;51.436;6.774;2024-02-23T00:34:09;98468.75;;;3.72;100.00
13612;BME280;6877;51.436;6.774;2024-02-23T00:36:38;98486.81;;;3.74;100.00
13612;BME280;6877;51.436;6.774;2024-02-23T00:39:10;98475.53;;;3.76;100.00
13612;BME280;6877;51.436;6.774;2024-02-23T00:41:36;98491.84;;;3.78;100.00
13612;BME280;6877;51.436;6.774;2024-02-23T00:44:03;98491.06;;;3.76;100.00
13612;BME280;6877;51.436;6.774;2024-02-23T00:46:34;98489.31;;;3.77;100.00
13612;BME280;6877;51.436;6.774;2024-02-23T00:49:06;98490.97;;;3.79;100.00
13612;BME280;6877;51.436;6.774;2024-02-23T00:51:32;98498.81;;;3.76;100.00
13612;BME280;6877;51.436;6.774;2024-02-23T00:53:59;98498.84;;;3.75;100.00
13612;BME280;6877;51.436;6.774;2024-02-23T00:56:30;98510.91;;;3.76;100.00
13612;BME280;6877;51.436;6.774;2024-02-23T00:59:02;98509.94;;;3.78;100.00
13612;BME280;6877;51.436;6.774;2024-02-23T01:01:32;98520.28;;;3.78;100.00
13612;BME280;6877;51.436;6.774;2024-02-23T01:04:03;98520.56;;;3.69;100.00
13612;BME280;6877;51.436;6.774;2024-02-23T01:06:30;98515.47;;;3.66;100.00
13612;BME280;6877;51.436;6.774;2024-02-23T01:08:56;98524.34;;;3.56;100.00
13612;BME280;6877;51.436;6.774;2024-02-23T01:11:23;98522.88;;;3.45;100.00
13612;BME280;6877;51.436;6.774;2024-02-23T01:13:49;98527.16;;;3.46;100.00
13612;BME280;6877;51.436;6.774;2024-02-23T01:16:20;98534.84;;;3.49;100.00
13612;BME280;6877;51.436;6.774;2024-02-23T01:18:47;98536.31;;;3.60;100.00
13612;BME280;6877;51.436;6.774;2024-02-23T01:21:13;98542.19;;;3.66;100.00
13612;BME280;6877;51.436;6.774;2024-02-23T01:23:46;98539.44;;;3.72;100.00
13612;BME280;6877;51.436;6.774;2024-02-23T01:26:18;98541.06;;;3.75;100.00
13612;BME280;6877;51.436;6.774;2024-02-23T01:28:49;98544.47;;;3.79;100.00
13612;BME280;6877;51.436;6.774;2024-02-23T01:31:16;98547.88;;;3.79;100.00
13612;BME280;6877;51.436;6.774;2024-02-23T01:33:43;98549.66;;;3.77;100.00
13612;BME280;6877;51.436;6.774;2024-02-23T01:36:10;98553.09;;;3.78;100.00
13612;BME280;6877;51.436;6.774;2024-02-23T01:38:37;98552.16;;;3.80;100.00
13612;BME280;6877;51.436;6.774;2024-02-23T01:41:03;98559.09;;;3.78;100.00
13612;BME280;6877;51.436;6.774;2024-02-23T01:43:30;98561.88;;;3.72;100.00
13612;BME280;6877;51.436;6.774;2024-02-23T01:46:02;98555.22;;;3.62;100.00
13612;BME280;6877;51.436;6.774;2024-02-23T01:48:29;98553.56;;;3.59;100.00
13612;BME280;6877;51.436;6.774;2024-02-23T01:50:56;98555.38;;;3.56;100.00
13612;BME280;6877;51.436;6.774;2024-02-23T01:53:24;98556.22;;;3.56;100.00
13612;BME280;6877;51.436;6.774;2024-02-23T01:55:57;98560.69;;;3.49;100.00
13612;BME280;6877;51.436;6.774;2024-02-23T01:58:24;98559.00;;;3.48;100.00
13612;BME280;6877;51.436;6.774;2024-02-23T02:00:51;98569.19;;;3.55;100.00
13612;BME280;6877;51.436;6.774;2024-02-23T02:03:22;98576.66;;;3.67;100.00
13612;BME280;6877;51.436;6.774;2024-02-23T02:05:49;98561.63;;;3.81;100.00
13612;BME280;6877;51.436;6.774;2024-02-23T02:08:17;98574.97;;;3.99;100.00
13612;BME280;6877;51.436;6.774;2024-02-23T02:10:48;98568.81;;;4.03;100.00
13612;BME280;6877;51.436;6.774;2024-02-23T02:13:20;98567.84;;;4.07;100.00
13612;BME280;6877;51.436;6.774;2024-02-23T02:15:47;98561.63;;;4.12;100.00
13612;BME280;6877;51.436;6.774;2024-02-23T02:18:13;98576.41;;;4.09;100.00
13612;BME280;6877;51.436;6.774;2024-02-23T02:20:58;98586.75;;;4.09;100.00
13612;BME280;6877;51.436;6.774;2024-02-23T02:23:25;98578.22;;;4.07;100.00
13612;BME280;6877;51.436;6.774;2024-02-23T02:25:59;98586.84;;;4.06;100.00
13612;BME280;6877;51.436;6.774;2024-02-23T02:28:26;98589.50;;;4.04;100.00
13612;BME280;6877;51.436;6.774;2024-02-23T02:30:52;98601.78;;;3.96;100.00
13612;BME280;6877;51.436;6.774;2024-02-23T02:33:19;98594.16;;;3.90;100.00
13612;BME280;6877;51.436;6.774;2024-02-23T02:35:51;98593.47;;;3.83;100.00
13612;BME280;6877;51.436;6.774;2024-02-23T02:38:17;98585.88;;;3.77;100.00
13612;BME280;6877;51.436;6.774;2024-02-23T02:40:44;98593.84;;;3.69;100.00
13612;BME280;6877;51.436;6.774;2024-02-23T02:43:11;98590.50;;;3.64;100.00
13612;BME280;6877;51.436;6.774;2024-02-23T02:45:37;98599.25;;;3.60;100.00
13612;BME280;6877;51.436;6.774;2024-02-23T02:48:04;98605.25;;;3.61;100.00
13612;BME280;6877;51.436;6.774;2024-02-23T02:50:35;98601.78;;;3.62;100.00
13612;BME280;6877;51.436;6.774;2024-02-23T02:53:07;98602.63;;;3.62;100.00
13612;BME280;6877;51.436;6.774;2024-02-23T02:55:42;98612.28;;;3.56;100.00
13612;BME280;6877;51.436;6.774;2024-02-23T02:58:14;98594.16;;;3.56;100.00
13612;BME280;6877;51.436;6.774;2024-02-23T03:00:41;98607.09;;;3.56;100.00
13612;BME280;6877;51.436;6.774;2024-02-23T03:03:12;98619.25;;;3.54;100.00
13612;BME280;6877;51.436;6.774;2024-02-23T03:05:39;98616.75;;;3.49;100.00
13612;BME280;6877;51.436;6.774;2024-02-23T03:08:06;98621.22;;;3.42;100.00
13612;BME280;6877;51.436;6.774;2024-02-23T03:10:32;98609.19;;;3.40;100.00
13612;BME280;6877;51.436;6.774;2024-02-23T03:12:59;98614.28;;;3.44;100.00
13612;BME280;6877;51.436;6.774;2024-02-23T03:15:30;98617.72;;;3.45;100.00
13612;BME280;6877;51.436;6.774;2024-02-23T03:17:57;98621.22;;;3.42;100.00
13612;BME280;6877;51.436;6.774;2024-02-23T03:20:28;98629.94;;;3.38;100.00
13612;BME280;6877;51.436;6.774;2024-02-23T03:22:59;98631.63;;;3.39;100.00
13612;BME280;6877;51.436;6.774;2024-02-23T03:25:27;98627.34;;;3.38;100.00
13612;BME280;6877;51.436;6.774;2024-02-23T03:27:53;98632.41;;;3.43;100.00
13612;BME280;6877;51.436;6.774;2024-02-23T03:30:20;98626.91;;;3.57;100.00
13612;BME280;6877;51.436;6.774;2024-02-23T03:32:46;98631.06;;;3.64;100.00
13612;BME280;6877;51.436;6.774;2024-02-23T03:35:13;98647.47;;;3.63;100.00
13612;BME280;6877;51.436;6.774;2024-02-23T03:37:39;98637.91;;;3.65;100.00
13612;BME280;6877;51.436;6.774;2024-02-23T03:40:06;98643.16;;;3.62;100.00
13612;BME280;6877;51.436;6.774;2024-02-23T03:42:33;98638.03;;;3.60;100.00
13612;BME280;6877;51.436;6.774;2024-02-23T03:45:05;98641.63;;;3.55;100.00
13612;BME280;6877;51.436;6.774;2024-02-23T03:47:31;98651.00;;;3.59;100.00
13612;BME280;6877;51.436;6.774;2024-02-23T03:50:03;98657.06;;;3.58;100.00
13612;BME280;6877;51.436;6.774;2024-02-23T03:52:35;98654.41;;;3.59;100.00
13612;BME280;6877;51.436;6.774;2024-02-23T03:55:01;98662.91;;;3.66;100.00
13612;BME280;6877;51.436;6.774;2024-02-23T03:57:29;98660.94;;;3.76;100.00
13612;BME280;6877;51.436;6.774;2024-02-23T04:00:01;98653.06;;;3.80;100.00
13612;BME280;6877;51.436;6.774;2024-02-23T04:02:27;98657.25;;;3.86;100.00
13612;BME280;6877;51.436;6.774;2024-02-23T04:04:53;98654.59;;;3.87;100.00
13612;BME280;6877;51.436;6.774;2024-02-23T04:07:25;98656.94;;;3.98;100.00
13612;BME280;6877;51.436;6.774;2024-02-23T04:09:51;98668.97;;;3.99;100.00
13612;BME280;6877;51.436;6.774;2024-02-23T04:12:26;98662.19;;;3.95;100.00
13612;BME280;6877;51.436;6.774;2024-02-23T04:14:52;98665.66;;;3.94;100.00
13612;BME280;6877;51.436;6.774;2024-02-23T04:17:23;98663.72;;;4.04;100.00
13612;BME280;6877;51.436;6.774;2024-02-23T04:19:50;98661.84;;;4.09;100.00
13612;BME280;6877;51.436;6.774;2024-02-23T04:22:21;98665.19;;;4.12;100.00
13612;BME280;6877;51.436;6.774;2024-02-23T04:24:53;98674.53;;;4.18;100.00
13612;BME280;6877;51.436;6.774;2024-02-23T04:27:24;98670.25;;;4.17;100.00
13612;BME280;6877;51.436;6.774;2024-02-23T04:29:56;98665.00;;;4.20;100.00
13612;BME280;6877;51.436;6.774;2024-02-23T04:32:22;98673.63;;;4.21;100.00
13612;BME280;6877;51.436;6.774;2024-02-23T04:34:49;98671.94;;;4.20;100.00
13612;BME280;6877;51.436;6.774;2024-02-23T04:37:16;98679.03;;;4.11;100.00
13612;BME280;6877;51.436;6.774;2024-02-23T04:39:43;98679.03;;;4.11;100.00
13612;BME280;6877;51.436;6.774;2024-02-23T04:42:10;98693.50;;;4.18;100.00
13612;BME280;6877;51.436;6.774;2024-02-23T04:44:42;98696.63;;;4.31;100.00
13612;BME280;6877;51.436;6.774;2024-02-23T04:47:13;98701.03;;;4.28;100.00
13612;BME280;6877;51.436;6.774;2024-02-23T04:49:45;98695.16;;;4.21;100.00
13612;BME280;6877;51.436;6.774;2024-02-23T04:52:11;98699.44;;;4.22;100.00
13612;BME280;6877;51.436;6.774;2024-02-23T04:54:43;98702.03;;;4.22;100.00
13612;BME280;6877;51.436;6.774;2024-02-23T04:57:10;98686.28;;;4.31;100.00
13612;BME280;6877;51.436;6.774;2024-02-23T04:59:36;98701.81;;;4.31;100.00
13612;BME280;6877;51.436;6.774;2024-02-23T05:02:02;98711.38;;;4.29;100.00
13612;BME280;6877;51.436;6.774;2024-02-23T05:04:29;98699.28;;;4.28;100.00
13612;BME280;6877;51.436;6.774;2024-02-23T05:07:00;98713.13;;;4.29;100.00
13612;BME280;6877;51.436;6.774;2024-02-23T05:09:27;98705.38;;;4.27;100.00
13612;BME280;6877;51.436;6.774;2024-02-23T05:11:59;98712.25;;;4.28;100.00
13612;BME280;6877;51.436;6.774;2024-02-23T05:14:26;98707.13;;;4.25;100.00
13612;BME280;6877;51.436;6.774;2024-02-23T05:16:53;98707.22;;;4.22;100.00
13612;BME280;6877;51.436;6.774;2024-02-23T05:19:19;98705.53;;;4.21;100.00
13612;BME280;6877;51.436;6.774;2024-02-23T05:21:45;98709.00;;;4.20;100.00
13612;BME280;6877;51.436;6.774;2024-02-23T05:24:12;98715.13;;;4.16;100.00
13612;BME280;6877;51.436;6.774;2024-02-23T05:26:38;98715.03;;;4.21;100.00
13612;BME280;6877;51.436;6.774;2024-02-23T05:29:05;98719.16;;;4.28;100.00
13612;BME280;6877;51.436;6.774;2024-02-23T05:32:04;98718.28;;;4.29;100.00
13612;BME280;6877;51.436;6.774;2024-02-23T05:34:31;98726.84;;;4.31;100.00
13612;BME280;6877;51.436;6.774;2024-02-23T05:37:03;98722.53;;;4.31;100.00
13612;BME280;6877;51.436;6.774;2024-02-23T05:39:36;98725.16;;;4.30;100.00
13612;BME280;6877;51.436;6.774;2024-02-23T05:42:08;98726.84;;;4.31;100.00
13612;BME280;6877;51.436;6.774;2024-02-23T05:44:43;98720.78;;;4.32;100.00
13612;BME280;6877;51.436;6.774;2024-02-23T05:47:09;98720.78;;;4.32;100.00
13612;BME280;6877;51.436;6.774;2024-02-23T05:49:41;98720.16;;;4.22;100.00
13612;BME280;6877;51.436;6.774;2024-02-23T05:52:07;98714.41;;;4.11;100.00
13612;BME280;6877;51.436;6.774;2024-02-23T05:54:34;98718.13;;;4.01;100.00
13612;BME280;6877;51.436;6.774;2024-02-23T05:57:00;98717.31;;;3.99;100.00
13612;BME280;6877;51.436;6.774;2024-02-23T05:59:27;98719.00;;;4.00;100.00
13612;BME280;6877;51.436;6.774;2024-02-23T06:01:53;98727.44;;;4.08;100.00
13612;BME280;6877;51.436;6.774;2024-02-23T06:04:23;98728.16;;;4.13;100.00
13612;BME280;6877;51.436;6.774;2024-02-23T06:06:50;98731.53;;;4.16;100.00
13612;BME280;6877;51.436;6.774;2024-02-23T06:09:16;98728.00;;;4.19;100.00
13612;BME280;6877;51.436;6.774;2024-02-23T06:11:48;98724.41;;;4.26;100.00
13612;BME280;6877;51.436;6.774;2024-02-23T06:14:15;98731.03;;;4.36;100.00
13612;BME280;6877;51.436;6.774;2024-02-23T06:16:41;98725.84;;;4.36;100.00
13612;BME280;6877;51.436;6.774;2024-02-23T06:19:08;98722.38;;;4.37;100.00
13612;BME280;6877;51.436;6.774;2024-02-23T06:21:40;98725.84;;;4.36;100.00
13612;BME280;6877;51.436;6.774;2024-02-23T06:24:07;98713.72;;;4.38;100.00
13612;BME280;6877;51.436;6.774;2024-02-23T06:26:35;98718.81;;;4.41;100.00
13612;BME280;6877;51.436;6.774;2024-02-23T06:29:01;98715.25;;;4.46;100.00
13612;BME280;6877;51.436;6.774;2024-02-23T06:31:33;98713.50;;;4.48;100.00
13612;BME280;6877;51.436;6.774;2024-02-23T06:34:00;98710.94;;;4.46;100.00
13612;BME280;6877;51.436;6.774;2024-02-23T06:36:27;98717.94;;;4.43;100.00
13612;BME280;6877;51.436;6.774;2024-02-23T06:38:53;98704.91;;;4.46;100.00
13612;BME280;6877;51.436;6.774;2024-02-23T06:41:20;98704.69;;;4.53;100.00
13612;BME280;6877;51.436;6.774;2024-02-23T06:43:46;98697.66;;;4.57;100.00
13612;BME280;6877;51.436;6.774;2024-02-23T06:46:19;98698.56;;;4.57;100.00
13612;BME280;6877;51.436;6.774;2024-02-23T06:48:46;98690.81;;;4.56;100.00
13612;BME280;6877;51.436;6.774;2024-02-23T06:51:17;98688.28;;;4.53;100.00
13612;BME280;6877;51.436;6.774;2024-02-23T06:53:43;98687.47;;;4.51;100.00
13612;BME280;6877;51.436;6.774;2024-02-23T06:56:15;98684.88;;;4.51;100.00
13612;BME280;6877;51.436;6.774;2024-02-23T06:58:46;98691.66;;;4.56;100.00
13612;BME280;6877;51.436;6.774;2024-02-23T07:01:20;98694.97;;;4.61;100.00
13612;BME280;6877;51.436;6.774;2024-02-23T07:03:51;98692.25;;;4.66;100.00
13612;BME280;6877;51.436;6.774;2024-02-23T07:06:23;98697.19;;;4.75;100.00
13612;BME280;6877;51.436;6.774;2024-02-23T07:08:49;98692.50;;;4.88;100.00
13612;BME280;6877;51.436;6.774;2024-02-23T07:11:16;98694.16;;;4.91;100.00
13612;BME280;6877;51.436;6.774;2024-02-23T07:13:43;98695.59;;;5.01;100.00
13612;BME280;6877;51.436;6.774;2024-02-23T07:16:10;98698.09;;;5.04;100.00
13612;BME280;6877;51.436;6.774;2024-02-23T07:18:36;98691.84;;;5.11;100.00
13612;BME280;6877;51.436;6.774;2024-02-23T07:21:08;98690.00;;;5.15;100.00
13612;BME280;6877;51.436;6.774;2024-02-23T07:23:34;98694.97;;;5.22;100.00
13612;BME280;6877;51.436;6.774;2024-02-23T07:26:06;98687.81;;;5.30;100.00
13612;BME280;6877;51.436;6.774;2024-02-23T07:28:37;98686.09;;;5.29;100.00
13612;BME280;6877;51.436;6.774;2024-02-23T07:31:04;98687.81;;;5.30;100.00
13612;BME280;6877;51.436;6.774;2024-02-23T07:33:30;98693.59;;;5.39;100.00
13612;BME280;6877;51.436;6.774;2024-02-23T07:35:57;98698.59;;;5.45;100.00
13612;BME280;6877;51.436;6.774;2024-02-23T07:38:24;98696.56;;;5.54;100.00
13612;BME280;6877;51.436;6.774;2024-02-23T07:40:51;98692.25;;;5.55;100.00
13612;BME280;6877;51.436;6.774;2024-02-23T07:43:17;98692.44;;;5.49;100.00
13612;BME280;6877;51.436;6.774;2024-02-23T07:45:49;98686.25;;;5.53;100.00
13612;BME280;6877;51.436;6.774;2024-02-23T07:48:15;98695.97;;;5.74;100.00
13612;BME280;6877;51.436;6.774;2024-02-23T07:50:42;98700.28;;;6.02;100.00
13612;BME280;6877;51.436;6.774;2024-02-23T07:53:13;98698.00;;;6.19;100.00
13612;BME280;6877;51.436;6.774;2024-02-23T07:55:40;98703.50;;;6.35;100.00
13612;BME280;6877;51.436;6.774;2024-02-23T07:58:06;98705.09;;;6.39;100.00
13612;BME280;6877;51.436;6.774;2024-02-23T08:00:33;98698.84;;;6.45;100.00
13612;BME280;6877;51.436;6.774;2024-02-23T08:03:06;98704.94;;;6.69;100.00
13612;BME280;6877;51.436;6.774;2024-02-23T08:05:38;98707.13;;;6.81;100.00
13612;BME280;6877;51.436;6.774;2024-02-23T08:08:05;98698.41;;;6.82;100.00
13612;BME280;6877;51.436;6.774;2024-02-23T08:10:38;98698.00;;;6.93;100.00
13612;BME280;6877;51.436;6.774;2024-02-23T08:13:09;98702.66;;;6.85;100.00
13612;BME280;6877;51.436;6.774;2024-02-23T08:15:36;98707.22;;;6.78;100.00
13612;BME280;6877;51.436;6.774;2024-02-23T08:18:03;98707.63;;;6.91;100.00
13612;BME280;6877;51.436;6.774;2024-02-23T08:20:30;98693.34;;;7.25;100.00
13612;BME280;6877;51.436;6.774;2024-02-23T08:23:02;98700.50;;;8.50;100.00
13612;BME280;6877;51.436;6.774;2024-02-23T08:25:28;98697.72;;;10.75;100.00
13612;BME280;6877;51.436;6.774;2024-02-23T08:28:00;98708.28;;;12.62;100.00
13612;BME280;6877;51.436;6.774;2024-02-23T08:30:26;98704.09;;;12.29;100.00
13612;BME280;6877;51.436;6.774;2024-02-23T08:32:53;98699.03;;;10.66;100.00
13612;BME280;6877;51.436;6.774;2024-02-23T08:35:25;98707.22;;;11.09;100.00
13612;BME280;6877;51.436;6.774;2024-02-23T08:37:56;98711.25;;;12.56;100.00
13612;BME280;6877;51.436;6.774;2024-02-23T08:40:23;98706.22;;;14.34;100.00
13612;BME280;6877;51.436;6.774;2024-02-23T08:42:49;98702.56;;;15.76;100.00
13612;BME280;6877;51.436;6.774;2024-02-23T08:45:16;98712.53;;;15.96;100.00
13612;BME280;6877;51.436;6.774;2024-02-23T08:47:47;98719.03;;;14.53;100.00
13612;BME280;6877;51.436;6.774;2024-02-23T08:50:14;98715.50;;;12.73;100.00
13612;BME280;6877;51.436;6.774;2024-02-23T08:52:43;98707.53;;;11.36;100.00
13612;BME280;6877;51.436;6.774;2024-02-23T08:55:16;98723.25;;;12.46;100.00
13612;BME280;6877;51.436;6.774;2024-02-23T08:57:44;98715.88;;;14.34;100.00
13612;BME280;6877;51.436;6.774;2024-02-23T09:00:11;98727.66;;;15.45;100.00
13612;BME280;6877;51.436;6.774;2024-02-23T09:02:37;98728.97;;;16.95;100.00
13612;BME280;6877;51.436;6.774;2024-02-23T09:05:05;98749.03;;;17.76;90.38
13612;BME280;6877;51.436;6.774;2024-02-23T09:07:36;98732.50;;;15.51;96.91
13612;BME280;6877;51.436;6.774;2024-02-23T09:10:03;98731.66;;;16.35;98.54
13612;BME280;6877;51.436;6.774;2024-02-23T09:12:37;98741.16;;;18.08;90.65
13612;BME280;6877;51.436;6.774;2024-02-23T09:15:09;98740.38;;;17.74;85.13
13612;BME280;6877;51.436;6.774;2024-02-23T09:17:41;98733.41;;;15.63;89.94
13612;BME280;6877;51.436;6.774;2024-02-23T09:20:08;98730.88;;;14.06;100.00
13612;BME280;6877;51.436;6.774;2024-02-23T09:22:35;98717.31;;;12.87;100.00
13612;BME280;6877;51.436;6.774;2024-02-23T09:25:08;98719.25;;;12.24;100.00
13612;BME280;6877;51.436;6.774;2024-02-23T09:27:34;98719.28;;;11.61;100.00
13612;BME280;6877;51.436;6.774;2024-02-23T09:30:05;98724.66;;;10.60;100.00
13612;BME280;6877;51.436;6.774;2024-02-23T09:32:32;98713.59;;;10.01;100.00
13612;BME280;6877;51.436;6.774;2024-02-23T09:34:58;98705.72;;;9.47;100.00
13612;BME280;6877;51.436;6.774;2024-02-23T09:37:25;98723.59;;;8.98;100.00
13612;BME280;6877;51.436;6.774;2024-02-23T09:39:51;98719.59;;;8.71;100.00
13612;BME280;6877;51.436;6.774;2024-02-23T09:42:23;98717.00;;;8.50;100.00
13612;BME280;6877;51.436;6.774;2024-02-23T09:44:58;98728.91;;;8.35;100.00
13612;BME280;6877;51.436;6.774;2024-02-23T09:47:31;98731.28;;;8.20;100.00
13612;BME280;6877;51.436;6.774;2024-02-23T09:50:00;98726.69;;;8.04;100.00
13612;BME280;6877;51.436;6.774;2024-02-23T09:52:27;98707.00;;;7.97;100.00
13612;BME280;6877;51.436;6.774;2024-02-23T09:55:00;98723.78;;;7.90;100.00
13612;BME280;6877;51.436;6.774;2024-02-23T09:57:27;98735.78;;;7.94;100.00
13612;BME280;6877;51.436;6.774;2024-02-23T09:59:58;98731.78;;;8.07;100.00
13612;BME280;6877;51.436;6.774;2024-02-23T10:02:25;98715.72;;;8.18;100.00
13612;BME280;6877;51.436;6.774;2024-02-23T10:04:53;98725.41;;;8.15;100.00
13612;BME280;6877;51.436;6.774;2024-02-23T10:07:20;98728.81;;;8.17;100.00
13612;BME280;6877;51.436;6.774;2024-02-23T10:09:47;98727.81;;;8.19;100.00
13612;BME280;6877;51.436;6.774;2024-02-23T10:12:15;98720.53;;;8.27;100.00
13612;BME280;6877;51.436;6.774;2024-02-23T10:14:47;98723.88;;;8.31;100.00
13612;BME280;6877;51.436;6.774;2024-02-23T10:17:13;98727.66;;;8.44;100.00
13612;BME280;6877;51.436;6.774;2024-02-23T10:19:42;98726.56;;;8.50;100.00
13612;BME280;6877;51.436;6.774;2024-02-23T10:22:08;98728.03;;;8.35;100.00
13612;BME280;6877;51.436;6.774;2024-02-23T10:24:42;98732.91;;;8.22;100.00
13612;BME280;6877;51.436;6.774;2024-02-23T10:27:13;98734.88;;;8.17;100.00
13612;BME280;6877;51.436;6.774;2024-02-23T10:29:49;98729.06;;;8.10;100.00
13612;BME280;6877;51.436;6.774;2024-02-23T10:32:22;98732.56;;;8.09;100.00
13612;BME280;6877;51.436;6.774;2024-02-23T10:34:50;98722.13;;;8.09;100.00
13612;BME280;6877;51.436;6.774;2024-02-23T10:37:18;98730.19;;;8.03;100.00
13612;BME280;6877;51.436;6.774;2024-02-23T10:39:54;98733.78;;;8.01;100.00
13612;BME280;6877;51.436;6.774;2024-02-23T10:42:24;98729.56;;;7.98;100.00
13612;BME280;6877;51.436;6.774;2024-02-23T10:44:59;98732.31;;;7.94;100.00
13612;BME280;6877;51.436;6.774;2024-02-23T10:47:28;98737.72;;;7.89;100.00
13612;BME280;6877;51.436;6.774;2024-02-23T10:50:00;98743.97;;;7.85;100.00
13612;BME280;6877;51.436;6.774;2024-02-23T10:52:33;98744.94;;;7.82;100.00
13612;BME280;6877;51.436;6.774;2024-02-23T10:55:06;98733.56;;;7.85;100.00
13612;BME280;6877;51.436;6.774;2024-02-23T10:57:35;98738.50;;;7.91;100.00
13612;BME280;6877;51.436;6.774;2024-02-23T11:00:03;98760.72;;;8.00;100.00
13612;BME280;6877;51.436;6.774;2024-02-23T11:02:44;98766.13;;;8.17;100.00
13612;BME280;6877;51.436;6.774;2024-02-23T11:05:18;98743.16;;;8.27;100.00
13612;BME280;6877;51.436;6.774;2024-02-23T11:07:48;98750.75;;;8.31;100.00
13612;BME280;6877;51.436;6.774;2024-02-23T11:10:15;98761.38;;;8.27;100.00
13612;BME280;6877;51.436;6.774;2024-02-23T11:12:43;98757.38;;;8.18;100.00
13612;BME280;6877;51.436;6.774;2024-02-23T11:15:28;98744.63;;;8.12;100.00
13612;BME280;6877;51.436;6.774;2024-02-23T11:17:55;98755.28;;;8.06;100.00
13612;BME280;6877;51.436;6.774;2024-02-23T11:20:34;98741.41;;;8.05;100.00
13612;BME280;6877;51.436;6.774;2024-02-23T11:23:13;98751.72;;;8.08;100.00
13612;BME280;6877;51.436;6.774;2024-02-23T11:25:40;98757.03;;;8.05;100.00
13612;BME280;6877;51.436;6.774;2024-02-23T11:28:07;98751.00;;;8.05;100.00
13612;BME280;6877;51.436;6.774;2024-02-23T11:30:33;98756.25;;;8.03;100.00
13612;BME280;6877;51.436;6.774;2024-02-23T11:33:00;98750.38;;;7.98;100.00
13612;BME280;6877;51.436;6.774;2024-02-23T11:35:27;98743.59;;;7.94;100.00
13612;BME280;6877;51.436;6.774;2024-02-23T11:37:56;98753.22;;;7.92;100.00
13612;BME280;6877;51.436;6.774;2024-02-23T11:40:35;98749.72;;;7.93;100.00
13612;BME280;6877;51.436;6.774;2024-02-23T11:43:03;98748.78;;;7.94;100.00
13612;BME280;6877;51.436;6.774;2024-02-23T11:45:30;98750.50;;;7.95;100.00
13612;BME280;6877;51.436;6.774;2024-02-23T11:47:57;98747.22;;;7.90;100.00
13612;BME280;6877;51.436;6.774;2024-02-23T11:50:28;98753.41;;;7.87;100.00
13612;BME280;6877;51.436;6.774;2024-02-23T11:53:01;98757.88;;;7.84;100.00
13612;BME280;6877;51.436;6.774;2024-02-23T11:55:28;98747.34;;;7.87;100.00
13612;BME280;6877;51.436;6.774;2024-02-23T11:58:00;98746.31;;;7.91;100.00
13612;BME280;6877;51.436;6.774;2024-02-23T12:00:27;98751.41;;;7.94;100.00
13612;BME280;6877;51.436;6.774;2024-02-23T12:02:55;98750.28;;;8.01;100.00
13612;BME280;6877;51.436;6.774;2024-02-23T12:05:26;98741.03;;;8.15;100.00
13612;BME280;6877;51.436;6.774;2024-02-23T12:07:53;98733.13;;;8.38;100.00
13612;BME280;6877;51.436;6.774;2024-02-23T12:10:20;98734.34;;;8.51;100.00
13612;BME280;6877;51.436;6.774;2024-02-23T12:12:53;98742.56;;;8.42;100.00
13612;BME280;6877;51.436;6.774;2024-02-23T12:15:20;98737.72;;;8.31;100.00
13612;BME280;6877;51.436;6.774;2024-02-23T12:17:47;98755.59;;;8.20;100.00
13612;BME280;6877;51.436;6.774;2024-02-23T12:20:19;98756.06;;;8.08;100.00
13612;BME280;6877;51.436;6.774;2024-02-23T12:22:47;98737.41;;;7.97;100.00
13612;BME280;6877;51.436;6.774;2024-02-23T12:25:13;98733.16;;;7.94;100.00
13612;BME280;6877;51.436;6.774;2024-02-23T12:27:46;98748.66;;;7.97;100.00
13612;BME280;6877;51.436;6.774;2024-02-23T12:30:18;98746.03;;;7.99;100.00
13612;BME280;6877;51.436;6.774;2024-02-23T12:32:50;98744.38;;;7.96;100.00
13612;BME280;6877;51.436;6.774;2024-02-23T12:35:16;98745.81;;;8.03;100.00
13612;BME280;6877;51.436;6.774;2024-02-23T12:37:50;98748.84;;;8.15;100.00
13612;BME280;6877;51.436;6.774;2024-02-23T12:40:22;98744.56;;;8.13;100.00
13612;BME280;6877;51.436;6.774;2024-02-23T12:42:49;98748.13;;;8.11;100.00
13612;BME280;6877;51.436;6.774;2024-02-23T12:45:15;98750.66;;;8.12;100.00
13612;BME280;6877;51.436;6.774;2024-02-23T12:47:41;98741.56;;;8.23;100.00
13612;BME280;6877;51.436;6.774;2024-02-23T12:50:13;98750.72;;;8.33;100.00
13612;BME280;6877;51.436;6.774;2024-02-23T12:52:40;98751.72;;;8.51;100.00
13612;BME280;6877;51.436;6.774;2024-02-23T12:55:07;98753.44;;;8.72;100.00
13612;BME280;6877;51.436;6.774;2024-02-23T12:57:34;98755.06;;;8.95;100.00
13612;BME280;6877;51.436;6.774;2024-02-23T13:00:00;98761.69;;;9.02;100.00
13612;BME280;6877;51.436;6.774;2024-02-23T13:02:32;98753.50;;;9.10;100.00
13612;BME280;6877;51.436;6.774;2024-02-23T13:04:59;98755.91;;;8.96;100.00
13612;BME280;6877;51.436;6.774;2024-02-23T13:07:25;98760.94;;;8.80;100.00
13612;BME280;6877;51.436;6.774;2024-02-23T13:09:57;98754.13;;;8.76;100.00
13612;BME280;6877;51.436;6.774;2024-02-23T13:12:23;98761.31;;;8.71;100.00
13612;BME280;6877;51.436;6.774;2024-02-23T13:14:51;98752.59;;;8.72;100.00
13612;BME280;6877;51.436;6.774;2024-02-23T13:17:17;98754.78;;;8.81;100.00
13612;BME280;6877;51.436;6.774;2024-02-23T13:19:44;98755.38;;;8.88;100.00